C6025 KPIE-KLAL
Flight info
| Callsign | C6025 |
|---|---|
| Flight time | N/A |
| Altitude | 7000 |
| Route | KOCF |
| Aircraft | H60/L-DGILORTUVY/SB2 |
Departure
| Time | 2026-04-26 21:02 |
|---|---|
| Airport | St. Petersburg Clearwater International Airport (KPIE) |
Arrival
| Time | N/A |
|---|---|
| Airport | Lakeland Linder International Airport (KLAL) |
| Time | Latitude | Longitude | Altitude | Speed | Heading |
|---|---|---|---|---|---|
| 2026-04-26 20:51 | 27.91330 | -82.69459 | 17 ft | 0 kts | 309° |
| 2026-04-26 20:58 | 27.91331 | -82.69460 | 17 ft | 0 kts | 282° |
| 2026-04-26 20:58 | 27.91328 | -82.69470 | 17 ft | 0 kts | 136° |
| 2026-04-26 20:59 | 27.91322 | -82.69464 | 18 ft | 4 kts | 141° |
| 2026-04-26 20:59 | 27.91296 | -82.69439 | 17 ft | 1 kts | 139° |
| 2026-04-26 20:59 | 27.91268 | -82.69415 | 19 ft | 9 kts | 131° |
| 2026-04-26 20:59 | 27.91240 | -82.69379 | 17 ft | 0 kts | 131° |
| 2026-04-26 21:00 | 27.91237 | -82.69375 | 40 ft | 0 kts | 131° |
| 2026-04-26 21:00 | 27.91204 | -82.69337 | 88 ft | 20 kts | 133° |
| 2026-04-26 21:00 | 27.91126 | -82.69071 | 170 ft | 61 kts | 120° |
| 2026-04-26 21:01 | 27.91361 | -82.68528 | 525 ft | 102 kts | 75° |
| 2026-04-26 21:01 | 27.91577 | -82.67591 | 354 ft | 135 kts | 72° |
| 2026-04-26 21:01 | 27.91790 | -82.66527 | 403 ft | 141 kts | 73° |
| 2026-04-26 21:01 | 27.92116 | -82.65493 | 469 ft | 139 kts | 66° |
| 2026-04-26 21:02 | 27.92311 | -82.64383 | 534 ft | 152 kts | 78° |
| 2026-04-26 21:02 | 27.92459 | -82.63176 | 254 ft | 153 kts | 81° |
| 2026-04-26 21:02 | 27.92645 | -82.62068 | 637 ft | 144 kts | 73° |
| 2026-04-26 21:02 | 27.92874 | -82.60821 | 584 ft | 179 kts | 78° |
| 2026-04-26 21:03 | 27.93111 | -82.59371 | 521 ft | 190 kts | 77° |
| 2026-04-26 21:03 | 27.92722 | -82.58068 | 646 ft | 176 kts | 149° |
| 2026-04-26 21:03 | 27.91549 | -82.58003 | 755 ft | 159 kts | 189° |
| 2026-04-26 21:03 | 27.90549 | -82.58048 | 732 ft | 128 kts | 190° |
| 2026-04-26 21:04 | 27.89714 | -82.58098 | 459 ft | 110 kts | 188° |
| 2026-04-26 21:04 | 27.89012 | -82.58183 | 487 ft | 92 kts | 191° |
| 2026-04-26 21:04 | 27.88433 | -82.58283 | 603 ft | 77 kts | 194° |
| 2026-04-26 21:04 | 27.87889 | -82.58249 | 671 ft | 83 kts | 181° |
| 2026-04-26 21:05 | 27.87289 | -82.58154 | 1214 ft | 89 kts | 178° |
| 2026-04-26 21:05 | 27.86569 | -82.58107 | 1529 ft | 126 kts | 179° |
| 2026-04-26 21:05 | 27.85605 | -82.57821 | 513 ft | 155 kts | 166° |
| 2026-04-26 21:05 | 27.84670 | -82.57552 | 871 ft | 116 kts | 169° |
| 2026-04-26 21:06 | 27.84020 | -82.57393 | 1875 ft | 78 kts | 172° |
| 2026-04-26 21:06 | 27.83572 | -82.57309 | 2766 ft | 55 kts | 176° |
| 2026-04-26 21:06 | 27.83220 | -82.56716 | 2827 ft | 138 kts | 133° |
| 2026-04-26 21:06 | 27.83282 | -82.55490 | 2641 ft | 158 kts | 80° |
| 2026-04-26 21:07 | 27.83330 | -82.54182 | 2415 ft | 174 kts | 94° |
| 2026-04-26 21:07 | 27.83032 | -82.52835 | 2100 ft | 179 kts | 109° |
| 2026-04-26 21:07 | 27.82683 | -82.51440 | 1524 ft | 194 kts | 101° |
| 2026-04-26 21:07 | 27.82462 | -82.49899 | 639 ft | 194 kts | 98° |
| 2026-04-26 21:08 | 27.82315 | -82.48500 | 911 ft | 165 kts | 94° |
| 2026-04-26 21:08 | 27.82239 | -82.47200 | 1069 ft | 175 kts | 92° |
| 2026-04-26 21:08 | 27.82170 | -82.45793 | 315 ft | 168 kts | 92° |
| 2026-04-26 21:08 | 27.82116 | -82.44636 | 712 ft | 141 kts | 91° |
| 2026-04-26 21:09 | 27.82076 | -82.43509 | 1066 ft | 146 kts | 90° |
| 2026-04-26 21:09 | 27.82041 | -82.42272 | 916 ft | 170 kts | 90° |
| 2026-04-26 21:09 | 27.82009 | -82.40927 | 229 ft | 163 kts | 90° |
| 2026-04-26 21:09 | 27.81949 | -82.39671 | 451 ft | 164 kts | 94° |
| 2026-04-26 21:10 | 27.81912 | -82.38351 | 386 ft | 167 kts | 91° |
| 2026-04-26 21:10 | 27.81897 | -82.37054 | 591 ft | 165 kts | 90° |
| 2026-04-26 21:10 | 27.81905 | -82.35764 | 787 ft | 165 kts | 90° |
| 2026-04-26 21:10 | 27.82005 | -82.34449 | 863 ft | 172 kts | 81° |
| 2026-04-26 21:11 | 27.82293 | -82.33117 | 878 ft | 176 kts | 74° |
| 2026-04-26 21:11 | 27.82692 | -82.31839 | 906 ft | 168 kts | 70° |
| 2026-04-26 21:11 | 27.83056 | -82.30653 | 723 ft | 145 kts | 70° |
| 2026-04-26 21:11 | 27.83562 | -82.29924 | 1367 ft | 102 kts | 42° |
| 2026-04-26 21:12 | 27.84158 | -82.29494 | 1172 ft | 99 kts | 35° |